Time;durP1;ratioP1;P1;durP2;ratioP2;P2;SDS_P1;SDS_P2;PMS_P1;PMS_P2;Temp;Humidity;BMP_temperature;BMP_pressure;BME280_temperature;BME280_humidity;BME280_pressure;Samples;Min_cycle;Max_cycle;Signal;HPM_P1;HPM_P2
2023/09/04 00:00:55;;;;;;;9.03;8.13;;;14.10;99.90;;;13.92;100.00;99070.59;5022229;28;20455;-76
2023/09/04 00:03:26;;;;;;;7.97;7.13;;;14.10;99.90;;;13.74;100.00;99021.31;5029946;28;20486;-74
2023/09/04 00:05:54;;;;;;;8.23;7.50;;;14.10;99.90;;;13.88;100.00;99065.59;5031441;28;20497;-76
2023/09/04 00:08:21;;;;;;;8.10;7.40;;;14.10;99.90;;;13.76;100.00;99058.28;5017230;28;20810;-75
2023/09/04 00:10:48;;;;;;;8.40;6.57;;;13.90;99.90;;;13.54;100.00;99043.06;5014150;28;20847;-76
2023/09/04 00:13:15;;;;;;;7.63;6.93;;;13.90;99.90;;;13.68;100.00;99064.78;5039193;27;20461;-75
2023/09/04 00:15:45;;;;;;;8.63;7.70;;;13.80;99.90;;;13.68;100.00;99064.78;5011901;28;20845;-76
2023/09/04 00:18:12;;;;;;;7.80;7.00;;;13.80;99.90;;;13.50;100.00;99066.25;5016976;28;20477;-76
2023/09/04 00:20:41;;;;;;;9.07;8.17;;;13.80;99.90;;;13.49;100.00;99069.16;5017521;28;20494;-76
2023/09/04 00:23:08;;;;;;;8.40;7.67;;;13.70;99.90;;;13.57;100.00;99071.69;5032718;28;20462;-76
2023/09/04 00:25:36;;;;;;;9.33;8.37;;;13.80;99.90;;;13.52;100.00;99066.88;5039138;28;20447;-77
2023/09/04 00:28:04;;;;;;;10.30;7.80;;;13.80;99.90;;;13.45;100.00;99079.63;5017082;28;20852;-76
2023/09/04 00:30:31;;;;;;;9.43;7.67;;;13.80;99.90;;;13.50;100.00;99079.00;5016964;28;20855;-74
2023/09/04 00:32:58;;;;;;;9.40;7.43;;;13.80;99.90;;;13.60;100.00;99072.09;5013699;28;20460;-76
2023/09/04 00:35:26;;;;;;;8.27;7.40;;;13.80;99.90;;;13.64;100.00;99077.09;5020918;28;20464;-76
2023/09/04 00:37:55;;;;;;;8.27;7.50;;;13.90;99.90;;;13.45;100.00;99074.19;5025323;28;20515;-76
2023/09/04 00:40:22;;;;;;;8.60;7.80;;;13.80;99.90;;;13.51;100.00;99073.34;5017582;28;20478;-77
2023/09/04 00:42:51;;;;;;;8.17;7.47;;;13.70;99.90;;;13.48;100.00;99081.06;5022834;28;20495;-75
2023/09/04 00:45:18;;;;;;;8.13;7.43;;;13.80;99.90;;;13.48;100.00;99062.91;5035356;28;20471;-76
2023/09/04 00:47:46;;;;;;;7.73;7.13;;;13.80;99.90;;;13.42;100.00;99069.13;5035860;28;20462;-72
2023/09/04 00:50:21;;;;;;;8.30;7.50;;;13.70;99.90;;;13.36;100.00;99062.69;5041179;28;20511;-75
2023/09/04 00:52:49;;;;;;;8.43;7.50;;;13.70;99.90;;;13.37;100.00;99063.50;5039922;27;20962;-76
2023/09/04 00:55:19;;;;;;;8.23;7.50;;;13.60;99.90;;;13.37;100.00;99064.34;5031306;28;20458;-75
2023/09/04 00:57:46;;;;;;;9.70;8.90;;;13.60;99.90;;;13.28;100.00;99063.72;5016919;28;20527;-76
2023/09/04 01:00:15;;;;;;;8.90;8.10;;;13.50;99.90;;;13.41;100.00;99070.16;5008690;28;20484;-76
2023/09/04 01:02:43;;;;;;;8.43;7.63;;;13.60;99.90;;;13.52;100.00;99074.19;5005675;28;20462;-76
2023/09/04 01:05:10;;;;;;;7.77;7.07;;;13.70;99.90;;;13.41;100.00;99068.31;5040962;27;20447;-76
2023/09/04 01:07:40;;;;;;;8.77;8.00;;;13.70;99.90;;;12.92;100.00;98999.78;5013817;28;20463;-76
2023/09/04 01:10:09;;;;;;;8.60;7.80;;;13.70;99.90;;;13.36;100.00;99072.69;5005760;28;20552;-76
2023/09/04 01:12:47;;;;;;;7.77;7.07;;;13.70;99.90;;;13.24;100.00;99081.44;5004244;28;20461;-76
2023/09/04 01:15:14;;;;;;;8.03;7.33;;;13.60;99.90;;;13.25;100.00;99074.13;5039449;27;20454;-76
2023/09/04 01:17:43;;;;;;;9.23;7.23;;;13.60;99.90;;;13.06;100.00;99073.91;5009367;28;20454;-76
2023/09/04 01:20:25;;;;;;;8.30;7.60;;;13.50;99.90;;;13.10;100.00;99079.75;5016615;28;20567;-77
2023/09/04 01:22:52;;;;;;;8.20;7.50;;;13.40;99.90;;;13.10;100.00;99080.59;5028954;27;20534;-76
2023/09/04 01:25:20;;;;;;;9.30;7.10;;;13.40;99.90;;;12.86;100.00;99076.56;5010724;28;20456;-77
2023/09/04 01:27:57;;;;;;;9.17;8.27;;;13.30;99.90;;;12.87;100.00;99080.94;4999350;28;20574;-76
2023/09/04 01:30:38;;;;;;;8.33;7.60;;;13.20;99.90;;;12.93;100.00;99063.84;5002974;28;20551;-77
2023/09/04 01:33:12;;;;;;;8.40;7.50;;;13.30;99.90;;;12.87;100.00;99067.41;5009972;28;20496;-77
2023/09/04 01:35:44;;;;;;;7.27;6.67;;;13.20;99.90;;;12.86;100.00;99058.41;5021616;28;20969;-78
2023/09/04 01:38:12;;;;;;;7.47;6.87;;;13.20;99.90;;;12.83;100.00;99063.44;5019518;28;20475;-77
2023/09/04 01:40:39;;;;;;;9.10;8.30;;;13.10;99.90;;;12.81;100.00;99069.03;5034192;27;21039;-77
2023/09/04 01:43:06;;;;;;;8.00;7.03;;;13.10;99.90;;;12.92;100.00;99064.88;5006813;28;20467;-78
2023/09/04 01:45:33;;;;;;;8.60;7.80;;;13.20;99.90;;;12.83;100.00;99063.44;5009856;28;20478;-77
2023/09/04 01:48:01;;;;;;;9.53;8.60;;;13.10;99.90;;;12.80;100.00;99059.25;5011579;28;20507;-76
2023/09/04 01:50:32;;;;;;;8.47;7.67;;;13.10;99.90;;;12.92;100.00;99051.34;5047912;28;20508;-78
2023/09/04 01:53:01;;;;;;;8.03;7.23;;;13.20;99.90;;;12.98;100.00;99066.81;5019844;28;20540;-76
2023/09/04 01:55:28;;;;;;;8.80;8.10;;;13.20;99.90;;;12.82;100.00;99069.91;5026257;28;20504;-77
2023/09/04 01:57:55;;;;;;;10.83;8.30;;;13.10;99.90;;;12.69;100.00;99066.09;5007961;28;20502;-75
2023/09/04 02:00:22;;;;;;;9.00;8.20;;;13.00;99.90;;;12.62;100.00;99059.78;5004897;28;20873;-77
2023/09/04 02:02:50;;;;;;;8.20;7.40;;;12.90;99.90;;;12.54;100.00;99065.41;5007610;28;20483;-75
2023/09/04 02:05:17;;;;;;;11.53;8.20;;;12.80;99.90;;;12.66;100.00;99060.25;5068460;27;20515;-75
2023/09/04 02:07:46;;;;;;;10.07;9.07;;;12.80;99.90;;;12.65;100.00;99059.38;5016649;28;20459;-77
2023/09/04 02:10:15;;;;;;;9.50;8.60;;;12.80;99.90;;;12.64;100.00;99059.59;5012155;28;20469;-75
2023/09/04 02:12:42;;;;;;;7.87;7.00;;;12.80;99.90;;;12.49;100.00;99036.19;5011978;28;20464;-76
2023/09/04 02:15:10;;;;;;;8.90;7.93;;;12.80;99.90;;;12.57;100.00;99054.16;5009868;28;20464;-75
2023/09/04 02:17:38;;;;;;;9.63;8.70;;;12.70;99.90;;;12.54;100.00;99060.00;5007506;28;21067;-77
2023/09/04 02:20:08;;;;;;;9.90;8.90;;;12.70;99.90;;;12.54;100.00;99058.09;5018895;28;20467;-76
2023/09/04 02:22:35;;;;;;;8.37;7.57;;;12.70;99.90;;;12.54;100.00;99054.56;5017385;28;20968;-77
2023/09/04 02:25:03;;;;;;;8.97;8.07;;;12.70;99.90;;;12.63;100.00;99052.50;5003223;28;21305;-77
2023/09/04 02:27:34;;;;;;;9.83;8.00;;;12.80;99.90;;;12.70;100.00;99043.38;5001274;28;20532;-78
2023/09/04 02:30:03;;;;;;;9.20;8.30;;;12.80;99.90;;;12.61;100.00;99050.84;5007322;28;20463;-77
2023/09/04 02:32:30;;;;;;;8.77;8.00;;;12.80;99.90;;;12.57;100.00;99054.16;5007350;28;20515;-78
2023/09/04 02:34:57;;;;;;;8.80;8.00;;;12.80;99.90;;;12.54;100.00;99044.56;5003701;28;20519;-77
2023/09/04 02:37:25;;;;;;;9.17;8.30;;;12.80;99.90;;;12.63;100.00;99050.63;5001745;28;20453;-77
2023/09/04 02:39:52;;;;;;;9.50;8.50;;;12.80;99.90;;;12.57;100.00;99043.31;5003384;28;20555;-76
2023/09/04 02:42:20;;;;;;;9.23;8.37;;;12.70;99.90;;;12.43;100.00;99045.97;5020750;28;20478;-78
2023/09/04 02:44:48;;;;;;;10.07;9.17;;;12.70;99.90;;;12.39;100.00;99042.00;5033106;28;20488;-78
2023/09/04 02:47:15;;;;;;;11.07;9.40;;;12.60;99.90;;;12.51;100.00;99057.66;5029059;28;20472;-77
2023/09/04 02:49:43;;;;;;;11.80;10.70;;;12.70;99.90;;;12.50;100.00;99045.16;5025788;28;20522;-74
2023/09/04 02:52:11;;;;;;;10.13;9.07;;;12.70;99.90;;;12.56;100.00;99047.06;5015842;28;20462;-76
2023/09/04 02:54:38;;;;;;;8.80;7.97;;;12.80;99.90;;;12.56;100.00;99037.03;5002849;28;20475;-76
2023/09/04 02:57:05;;;;;;;9.33;8.43;;;12.80;99.90;;;12.60;100.00;99045.63;5003372;28;20453;-76
2023/09/04 02:59:35;;;;;;;9.03;8.10;;;12.80;99.90;;;12.50;100.00;99039.72;5002350;28;20560;-77
2023/09/04 03:02:04;;;;;;;8.80;8.07;;;12.80;99.90;;;12.43;100.00;99043.25;5002766;28;20459;-77
2023/09/04 03:04:31;;;;;;;9.00;8.17;;;12.80;99.90;;;12.60;100.00;99051.03;4999801;28;20886;-76
2023/09/04 03:06:59;;;;;;;8.37;7.53;;;12.80;99.90;;;12.55;100.00;99056.25;5000806;28;20529;-74
2023/09/04 03:09:26;;;;;;;8.67;7.97;;;12.90;99.90;;;12.49;100.00;99047.03;5020951;28;20768;-75
2023/09/04 03:11:53;;;;;;;9.10;8.30;;;12.80;99.90;;;12.51;100.00;99046.81;5003483;28;20644;-74
2023/09/04 03:14:21;;;;;;;8.83;7.37;;;12.90;99.90;;;12.48;100.00;99050.78;4999606;28;20565;-78
2023/09/04 03:16:48;;;;;;;8.63;7.83;;;12.80;99.90;;;12.35;100.00;99045.31;5002787;28;20496;-76
2023/09/04 03:19:16;;;;;;;9.17;8.33;;;12.70;99.90;;;12.40;100.00;99040.13;5032894;28;20477;-75
2023/09/04 03:21:43;;;;;;;8.60;7.80;;;12.70;99.90;;;12.18;100.00;99042.94;5017995;28;20464;-77
2023/09/04 03:24:11;;;;;;;9.10;8.20;;;12.60;99.90;;;12.15;100.00;99046.88;5004907;28;20971;-76
2023/09/04 03:26:38;;;;;;;8.83;8.03;;;12.50;99.90;;;12.04;100.00;99036.59;5029422;28;20508;-77
2023/09/04 03:29:05;;;;;;;8.90;8.10;;;12.40;99.90;;;12.07;100.00;99048.94;5020365;28;20466;-76
2023/09/04 03:31:32;;;;;;;8.47;7.67;;;12.40;99.90;;;12.18;100.00;99046.47;5011057;28;20454;-77
2023/09/04 03:34:00;;;;;;;10.20;9.20;;;12.40;99.90;;;12.09;100.00;99042.28;5013962;28;20458;-76
2023/09/04 03:36:29;;;;;;;9.57;8.53;;;12.40;99.90;;;12.16;100.00;99043.13;5034933;28;20484;-75
2023/09/04 03:38:56;;;;;;;10.77;8.70;;;12.50;99.90;;;12.07;100.00;99047.06;5019405;28;20466;-75
2023/09/04 03:41:24;;;;;;;9.23;8.33;;;12.40;99.90;;;12.06;100.00;99031.84;5018035;28;20561;-76
2023/09/04 03:43:51;;;;;;;11.53;8.63;;;12.30;99.90;;;12.22;100.00;99035.25;5041363;27;20986;-76
2023/09/04 03:46:19;;;;;;;9.63;8.53;;;12.40;99.90;;;12.28;100.00;99029.03;5009720;28;20921;-77
2023/09/04 03:48:46;;;;;;;9.47;8.33;;;12.50;99.90;;;12.22;100.00;99024.44;5013515;28;20458;-76
2023/09/04 03:51:13;;;;;;;9.73;8.63;;;12.50;99.90;;;12.22;100.00;99032.56;5032702;28;20499;-74
2023/09/04 03:53:44;;;;;;;10.20;9.20;;;12.40;99.90;;;12.15;100.00;99036.06;5020362;28;20449;-76
2023/09/04 03:56:11;;;;;;;8.93;8.03;;;12.40;99.90;;;12.27;100.00;99030.88;5023763;28;20458;-76
2023/09/04 03:58:41;;;;;;;9.77;8.30;;;12.40;99.90;;;12.02;100.00;99035.97;5034845;28;20470;-76
2023/09/04 04:01:08;;;;;;;9.17;8.37;;;12.30;99.90;;;11.95;100.00;99026.97;5024347;27;20516;-76
2023/09/04 04:03:35;;;;;;;9.20;8.40;;;12.30;99.90;;;11.99;100.00;99037.19;5008837;28;20939;-75
2023/09/04 04:06:12;;;;;;;9.90;8.20;;;12.30;99.90;;;12.04;100.00;99025.78;5015182;28;20966;-73
2023/09/04 04:08:44;;;;;;;9.00;8.20;;;12.30;99.90;;;11.99;100.00;99030.94;5031017;27;20513;-77
2023/09/04 04:11:12;;;;;;;9.00;8.20;;;12.30;99.90;;;12.10;100.00;99038.53;5027526;28;20807;-78
2023/09/04 04:13:39;;;;;;;9.03;8.20;;;12.40;99.90;;;12.22;100.00;99046.09;5006812;28;20932;-75
2023/09/04 04:16:06;;;;;;;9.00;8.20;;;12.40;99.90;;;12.02;100.00;99038.69;5012424;28;20561;-75
2023/09/04 04:18:34;;;;;;;10.97;8.97;;;12.30;99.90;;;11.65;100.00;98986.59;5010387;28;20458;-76
2023/09/04 04:21:02;;;;;;;9.93;8.93;;;12.20;99.90;;;12.12;100.00;99041.88;5015663;28;20476;-74
2023/09/04 13:29:57;;;;;;;2.43;2.23;;;25.10;52.50;;;25.07;36.73;98847.84;5035723;28;20534;-74
2023/09/04 13:33:09;;;;;;;3.00;2.07;;;25.10;52.10;;;25.03;36.48;98835.72;5266425;22;20848;-71
2023/09/04 13:35:56;;;;;;;2.33;2.10;;;25.10;52.30;;;24.87;36.32;98841.41;5042624;28;20514;-72
2023/09/04 13:38:44;;;;;;;3.93;2.10;;;25.10;51.80;;;24.73;37.31;98824.66;5034104;28;20491;-73
2023/09/04 13:41:31;;;;;;;2.60;2.40;;;25.00;52.20;;;24.90;37.98;98829.75;5046483;28;20772;-75
2023/09/04 13:44:19;;;;;;;2.80;2.60;;;25.00;52.60;;;24.96;36.99;98826.97;5037260;28;20963;-76
2023/09/04 13:47:07;;;;;;;2.60;2.40;;;25.00;52.20;;;24.80;36.97;98829.88;5039965;28;20554;-72
2023/09/04 13:49:56;;;;;;;2.93;2.40;;;25.00;52.00;;;24.73;38.00;98818.28;5045200;28;20456;-75
2023/09/04 13:52:43;;;;;;;2.37;2.17;;;24.90;52.70;;;24.94;38.41;98813.44;5050774;28;20463;-77
2023/09/04 13:55:30;;;;;;;2.80;2.57;;;25.00;53.30;;;24.96;40.41;98822.25;5049433;28;20427;-77
2023/09/04 14:03:15;;;;;;;2.47;2.27;;;25.20;54.20;;;25.22;40.12;98815.63;5048900;28;20438;-78
2023/09/04 14:06:49;;;;;;;2.57;2.37;;;25.30;54.10;;;25.11;38.75;98809.38;5044260;28;20442;-77
2023/09/04 14:09:37;;;;;;;1.93;1.83;;;25.30;53.60;;;25.36;38.74;98802.75;5043193;28;20784;-78
2023/09/04 14:12:25;;;;;;;2.17;2.07;;;25.30;53.70;;;25.08;38.23;98802.50;5043231;28;20437;-79
2023/09/04 14:15:13;;;;;;;2.47;2.27;;;25.30;53.10;;;24.79;38.04;98795.03;5043942;28;20434;-80
2023/09/04 14:18:00;;;;;;;3.53;2.60;;;25.10;52.90;;;24.76;38.92;98790.09;5037471;28;20468;-79
2023/09/04 14:20:51;;;;;;;2.50;1.83;;;25.00;53.20;;;24.57;38.46;98751.31;5038088;28;20461;-77
2023/09/04 14:23:42;;;;;;;2.13;1.93;;;25.00;52.80;;;24.81;38.22;98787.31;5036344;28;20452;-76
2023/09/04 15:51:08;;;;;;;2.00;1.80;;;24.90;46.80;;;24.82;32.93;98772.38;4898658;29;20606;-75
2023/09/04 16:06:13;;;;;;;1.63;1.53;;;24.80;46.90;;;24.65;33.01;98766.44;4864621;29;20507;-76
2023/09/04 16:09:18;;;;;;;2.30;2.10;;;24.70;47.50;;;24.64;33.00;98764.78;4981844;28;20540;-74
2023/09/04 16:12:07;;;;;;;3.07;1.80;;;24.80;47.50;;;24.66;33.94;98768.91;5002624;28;20439;-75
2023/09/04 16:15:14;;;;;;;1.43;1.33;;;24.80;48.10;;;24.50;34.81;98759.94;5037824;28;20445;-74
2023/09/04 16:22:11;;;;;;;2.00;1.90;;;24.70;49.20;;;24.40;35.77;98755.31;5040260;28;20485;-77
2023/09/04 16:25:58;;;;;;;1.63;1.53;;;24.60;49.80;;;24.30;35.61;98758.19;5042327;28;20802;-75
2023/09/04 16:29:27;;;;;;;2.03;1.70;;;24.50;49.20;;;24.29;36.44;98754.56;5039668;28;20531;-74
2023/09/04 16:32:31;;;;;;;;;;;;;;;;;;;;;
2023/09/04 16:36:01;;;;;;;1.53;1.43;;;24.40;49.80;;;24.29;37.21;98754.56;5040809;28;20472;-76
2023/09/04 16:39:12;;;;;;;;;;;;;;;;;;;;;
2023/09/04 16:42:20;;;;;;;2.07;1.90;;;24.30;50.00;;;24.16;37.80;98744.19;5041967;28;20469;-76
2023/09/04 16:48:43;;;;;;;;;;;;;;;;;;;;;
2023/09/04 16:56:21;;;;;;;2.03;1.77;;;24.30;50.70;;;25.50;35.63;98746.75;4886380;28;20628;-76
2023/09/04 17:02:56;;;;;;;1.93;1.83;;;25.60;50.40;;;26.90;33.45;98747.34;4903432;28;21445;-77
2023/09/04 17:05:46;;;;;;;2.40;2.20;;;26.20;50.00;;;26.85;33.47;98739.94;5012909;28;20508;-74
2023/09/04 17:08:49;;;;;;;3.60;2.13;;;26.30;49.70;;;26.59;33.85;98743.97;5040397;28;21050;-75
2023/09/04 17:15:45;;;;;;;2.13;1.90;;;26.30;49.70;;;26.77;33.69;98744.25;5034842;28;20445;-76
2023/09/04 17:18:32;;;;;;;2.63;2.43;;;26.30;49.70;;;26.66;34.24;98740.00;5034691;28;21264;-78
2023/09/04 17:22:24;;;;;;;2.07;1.60;;;26.40;49.90;;;26.60;34.09;98722.66;5034729;28;21261;-76
2023/09/04 17:25:50;;;;;;;;;;;;;;;;;;;;;
2023/09/04 17:29:02;;;;;;;2.17;1.97;;;26.20;50.10;;;25.87;34.95;98711.94;5044471;28;20499;-71
